createdAt,value
2019-01-27T00:00:02.136Z,2.29
2019-01-27T00:02:35.926Z,2.30
2019-01-27T00:05:10.695Z,2.30
2019-01-27T00:07:44.652Z,2.29
2019-01-27T00:10:19.298Z,2.27
2019-01-27T00:12:53.934Z,2.24
2019-01-27T00:15:28.269Z,2.25
2019-01-27T00:18:02.219Z,2.27
2019-01-27T00:20:36.814Z,2.27
2019-01-27T00:23:10.669Z,2.28
2019-01-27T00:25:44.446Z,2.28
2019-01-27T00:28:18.373Z,2.28
2019-01-27T00:30:52.648Z,2.28
2019-01-27T00:33:26.918Z,2.29
2019-01-27T00:36:02.182Z,2.29
2019-01-27T00:38:36.675Z,2.29
2019-01-27T00:41:10.880Z,2.29
2019-01-27T00:43:45.767Z,2.27
2019-01-27T00:46:20.790Z,2.28
2019-01-27T00:48:54.386Z,2.27
2019-01-27T00:51:28.095Z,2.27
2019-01-27T00:54:02.100Z,2.28
2019-01-27T00:56:37.008Z,2.29
2019-01-27T00:59:11.929Z,2.31
2019-01-27T01:01:46.311Z,2.32
2019-01-27T01:04:20.289Z,2.31
2019-01-27T01:06:54.169Z,2.33
2019-01-27T01:09:28.072Z,2.32
2019-01-27T01:12:01.488Z,2.33
2019-01-27T01:14:36.635Z,2.32
2019-01-27T01:17:11.829Z,2.30
2019-01-27T01:19:46.329Z,2.30
2019-01-27T01:22:20.299Z,2.32
2019-01-27T01:24:54.838Z,2.31
2019-01-27T01:27:29.621Z,2.29
2019-01-27T01:30:03.444Z,2.26
2019-01-27T01:32:37.362Z,2.27
2019-01-27T01:35:12.749Z,2.26
2019-01-27T01:37:46.607Z,2.23
2019-01-27T01:40:22.707Z,2.22
2019-01-27T01:42:57.521Z,2.24
2019-01-27T01:45:34.430Z,2.26
2019-01-27T01:48:08.758Z,2.24
2019-01-27T01:50:42.500Z,2.24
2019-01-27T01:53:17.805Z,2.26
2019-01-27T01:55:52.087Z,2.26
2019-01-27T01:58:26.072Z,2.27
2019-01-27T02:01:01.891Z,2.25
2019-01-27T02:03:36.651Z,2.25
2019-01-27T02:06:11.315Z,2.23
2019-01-27T02:08:45.422Z,2.23
2019-01-27T02:11:19.797Z,2.23
2019-01-27T02:13:54.144Z,2.22
2019-01-27T02:16:28.306Z,2.23
2019-01-27T02:19:02.705Z,2.22
2019-01-27T02:21:37.799Z,2.22
2019-01-27T02:24:14.078Z,2.24
2019-01-27T02:26:48.511Z,2.24
2019-01-27T02:29:23.262Z,2.21
2019-01-27T02:31:58.142Z,2.21
2019-01-27T02:34:32.598Z,2.22
2019-01-27T02:37:07.636Z,2.24
2019-01-27T02:39:42.368Z,2.25
2019-01-27T02:42:16.533Z,2.27
2019-01-27T02:44:50.680Z,2.28
2019-01-27T02:47:24.997Z,2.28
2019-01-27T02:49:59.983Z,2.29
2019-01-27T02:52:33.345Z,2.29
2019-01-27T02:55:08.931Z,2.30
2019-01-27T02:57:42.768Z,2.30
2019-01-27T03:00:17.424Z,2.31
2019-01-27T03:02:52.018Z,2.30
2019-01-27T03:05:43.759Z,2.33
2019-01-27T03:08:18.747Z,2.35
2019-01-27T03:10:53.359Z,2.37
2019-01-27T03:13:29.022Z,2.39
2019-01-27T03:16:03.528Z,2.39
2019-01-27T03:18:38.596Z,2.41
2019-01-27T03:21:14.635Z,2.41
2019-01-27T03:23:48.389Z,2.44
2019-01-27T03:26:21.907Z,2.43
2019-01-27T03:28:56.225Z,2.44
2019-01-27T03:31:30.148Z,2.46
2019-01-27T03:34:04.425Z,2.48
2019-01-27T03:36:38.483Z,2.50
2019-01-27T03:39:16.037Z,2.50
2019-01-27T03:41:50.258Z,2.47
2019-01-27T03:44:24.390Z,2.48
2019-01-27T03:46:57.653Z,2.49
2019-01-27T03:49:32.720Z,2.50
2019-01-27T03:52:06.701Z,2.53
2019-01-27T03:54:41.653Z,2.52
2019-01-27T03:57:15.830Z,2.55
2019-01-27T03:59:51.227Z,2.58
2019-01-27T04:02:24.629Z,2.61
2019-01-27T04:04:57.864Z,2.61
2019-01-27T04:07:32.825Z,2.61
2019-01-27T04:10:09.196Z,2.61
2019-01-27T04:12:42.995Z,2.61
2019-01-27T04:15:18.313Z,2.63
2019-01-27T04:17:53.571Z,2.65
2019-01-27T04:20:27.555Z,2.64
2019-01-27T04:23:01.394Z,2.64
2019-01-27T04:25:35.713Z,2.64
2019-01-27T04:28:11.488Z,2.61
2019-01-27T04:30:47.317Z,2.60
2019-01-27T04:33:22.362Z,2.61
2019-01-27T04:35:56.166Z,2.59
2019-01-27T04:38:32.019Z,2.58
2019-01-27T04:41:05.881Z,2.58
2019-01-27T04:43:40.814Z,2.61
2019-01-27T04:46:15.544Z,2.60
2019-01-27T04:48:49.064Z,2.60
2019-01-27T04:51:23.008Z,2.57
2019-01-27T04:53:56.356Z,2.57
2019-01-27T04:56:31.012Z,2.53
2019-01-27T04:59:06.255Z,2.52
2019-01-27T05:01:41.553Z,2.55
2019-01-27T05:04:25.263Z,2.53
2019-01-27T05:07:00.121Z,2.53
2019-01-27T05:09:34.428Z,2.56
2019-01-27T05:12:09.245Z,2.58
2019-01-27T05:14:43.825Z,2.60
2019-01-27T05:17:18.480Z,2.61
2019-01-27T05:19:53.114Z,2.57
2019-01-27T05:22:28.700Z,2.61
2019-01-27T05:25:03.506Z,2.62
2019-01-27T05:27:37.791Z,2.62
2019-01-27T05:30:15.784Z,2.64
2019-01-27T05:32:49.185Z,2.66
2019-01-27T05:35:23.101Z,2.66
2019-01-27T05:37:56.891Z,2.67
2019-01-27T05:40:31.316Z,2.67
2019-01-27T05:43:05.734Z,2.67
2019-01-27T05:45:40.161Z,2.69
2019-01-27T05:48:15.123Z,2.71
2019-01-27T05:50:49.506Z,2.72
2019-01-27T05:53:24.177Z,2.72
2019-01-27T05:55:58.597Z,2.73
2019-01-27T05:58:34.569Z,2.73
2019-01-27T06:01:11.821Z,2.74
2019-01-27T06:03:46.015Z,2.75
2019-01-27T06:06:23.041Z,2.75
2019-01-27T06:08:57.771Z,2.75
2019-01-27T06:11:36.162Z,2.75
2019-01-27T06:14:10.004Z,2.76
2019-01-27T06:16:44.961Z,2.77
2019-01-27T06:19:19.333Z,2.78
2019-01-27T06:21:54.384Z,2.80
2019-01-27T06:24:28.817Z,2.82
2019-01-27T06:27:03.777Z,2.85
2019-01-27T06:29:37.730Z,2.84
2019-01-27T06:32:14.710Z,2.85
2019-01-27T06:34:48.844Z,2.85
2019-01-27T06:37:24.922Z,2.86
2019-01-27T06:39:59.202Z,2.86
2019-01-27T06:42:33.987Z,2.84
2019-01-27T06:45:09.043Z,2.82
2019-01-27T06:47:43.351Z,2.81
2019-01-27T06:50:16.487Z,2.82
2019-01-27T06:52:51.751Z,2.80
2019-01-27T06:55:24.726Z,2.79
2019-01-27T06:57:58.329Z,2.80
2019-01-27T07:00:59.321Z,2.81
2019-01-27T07:03:50.100Z,2.82
2019-01-27T07:06:47.859Z,2.79
2019-01-27T07:09:40.566Z,2.78
2019-01-27T07:12:35.942Z,2.78
2019-01-27T07:15:29.547Z,2.76
2019-01-27T07:18:25.512Z,2.75
2019-01-27T07:21:25.319Z,2.74
2019-01-27T07:24:15.001Z,2.77
2019-01-27T07:27:05.939Z,2.80
2019-01-27T07:30:07.820Z,2.85
2019-01-27T07:32:56.610Z,2.85
2019-01-27T07:35:43.965Z,2.88
2019-01-27T07:38:40.325Z,2.91
2019-01-27T07:41:37.692Z,2.95
2019-01-27T07:44:27.316Z,3.01
2019-01-27T07:47:34.724Z,3.08
2019-01-27T07:50:21.388Z,3.13
2019-01-27T07:53:16.415Z,3.16
2019-01-27T07:56:12.707Z,3.24
2019-01-27T07:58:56.020Z,3.30
2019-01-27T08:01:59.052Z,3.36
2019-01-27T08:05:00.581Z,3.40
2019-01-27T08:07:56.952Z,3.45
2019-01-27T08:10:54.490Z,3.51
2019-01-27T08:13:46.446Z,3.54
2019-01-27T08:16:39.131Z,3.59
2019-01-27T08:19:22.052Z,3.64
2019-01-27T08:22:14.115Z,3.70
2019-01-27T08:25:02.988Z,3.72
2019-01-27T08:27:54.765Z,3.72
2019-01-27T08:30:48.620Z,3.79
2019-01-27T08:33:43.719Z,3.83
2019-01-27T08:36:52.024Z,3.84
2019-01-27T08:39:44.740Z,3.85
2019-01-27T08:42:32.234Z,3.86
2019-01-27T08:45:26.294Z,3.88
2019-01-27T08:48:00.061Z,3.90
2019-01-27T08:50:34.448Z,3.92
2019-01-27T08:53:08.696Z,3.97
2019-01-27T08:55:42.676Z,4.02
2019-01-27T08:58:16.582Z,4.04
2019-01-27T09:01:01.357Z,4.11
2019-01-27T09:03:39.719Z,4.14
2019-01-27T09:06:22.704Z,4.18
2019-01-27T09:09:15.431Z,4.20
2019-01-27T09:12:13.579Z,4.23
2019-01-27T09:15:12.839Z,4.27
2019-01-27T09:18:02.763Z,4.22
2019-01-27T09:20:54.045Z,4.29
2019-01-27T09:23:40.851Z,4.34
2019-01-27T09:26:32.417Z,4.36
2019-01-27T09:29:13.930Z,4.40
2019-01-27T09:32:24.727Z,4.46
2019-01-27T09:35:29.609Z,4.48
2019-01-27T09:38:17.547Z,4.54
2019-01-27T09:41:12.065Z,4.61
2019-01-27T09:44:03.535Z,4.66
2019-01-27T09:46:55.830Z,4.71
2019-01-27T09:49:53.166Z,4.78
2019-01-27T09:52:40.738Z,4.81
2019-01-27T09:55:34.872Z,4.87
2019-01-27T09:58:29.015Z,4.84
2019-01-27T10:01:27.732Z,4.87
2019-01-27T10:04:19.800Z,4.91
2019-01-27T10:07:21.718Z,4.94
2019-01-27T10:10:18.534Z,4.94
2019-01-27T10:13:19.021Z,4.96
2019-01-27T10:16:05.723Z,5.02
2019-01-27T10:19:07.111Z,5.08
2019-01-27T10:22:11.166Z,5.14
2019-01-27T10:25:15.870Z,5.20
2019-01-27T10:28:11.655Z,5.23
2019-01-27T10:31:10.504Z,5.26
2019-01-27T10:34:01.394Z,5.28
2019-01-27T10:36:55.583Z,5.30
2019-01-27T10:39:37.194Z,5.35
2019-01-27T10:42:41.241Z,5.39
2019-01-27T10:45:33.035Z,5.42
2019-01-27T10:48:33.479Z,5.52
2019-01-27T10:51:41.248Z,5.57
2019-01-27T10:54:24.467Z,5.63
2019-01-27T10:57:26.074Z,5.62
2019-01-27T11:00:20.109Z,5.63
2019-01-27T11:03:12.113Z,5.69
2019-01-27T11:06:15.659Z,5.80
2019-01-27T11:09:07.431Z,5.91
2019-01-27T11:12:01.767Z,5.98
2019-01-27T11:14:46.877Z,6.09
2019-01-27T11:17:29.916Z,6.20
2019-01-27T11:20:12.458Z,6.34
2019-01-27T11:22:55.696Z,6.43
2019-01-27T11:25:46.307Z,6.54
2019-01-27T11:28:42.763Z,6.66
2019-01-27T11:31:29.383Z,6.73
2019-01-27T11:34:12.405Z,6.79
2019-01-27T11:37:11.272Z,6.76
2019-01-27T11:40:02.264Z,6.71
2019-01-27T11:43:03.942Z,6.74
2019-01-27T11:45:56.567Z,6.78
2019-01-27T11:48:54.621Z,6.75
2019-01-27T11:51:50.081Z,6.65
2019-01-27T11:54:24.624Z,6.59
2019-01-27T11:57:01.470Z,6.57
2019-01-27T11:59:34.618Z,6.56
2019-01-27T12:02:07.452Z,6.58
2019-01-27T12:04:40.971Z,6.57
2019-01-27T12:07:15.011Z,6.53
2019-01-27T12:09:50.456Z,6.48
2019-01-27T12:12:23.616Z,6.47
2019-01-27T12:15:00.006Z,6.44
2019-01-27T12:17:34.031Z,6.38
2019-01-27T12:20:09.378Z,6.35
2019-01-27T12:22:42.669Z,6.35
2019-01-27T12:25:17.064Z,6.36
2019-01-27T12:27:52.014Z,6.44
2019-01-27T12:30:29.517Z,6.49
2019-01-27T12:33:11.633Z,6.47
2019-01-27T12:35:46.128Z,6.48
2019-01-27T12:38:19.905Z,6.55
2019-01-27T12:40:58.893Z,6.61
2019-01-27T12:43:39.141Z,6.62
2019-01-27T12:46:15.336Z,6.61
2019-01-27T12:48:50.313Z,6.63
2019-01-27T12:51:23.427Z,6.61
2019-01-27T12:53:56.554Z,6.57
2019-01-27T12:56:31.778Z,6.48
2019-01-27T12:59:07.093Z,6.49
2019-01-27T13:01:42.287Z,6.48
2019-01-27T13:04:17.683Z,6.47
2019-01-27T13:06:52.084Z,6.44
2019-01-27T13:09:25.943Z,6.40
2019-01-27T13:12:00.946Z,6.36
2019-01-27T13:14:35.851Z,6.33
2019-01-27T13:17:10.077Z,6.31
2019-01-27T13:19:43.890Z,6.30
2019-01-27T13:22:18.200Z,6.27
2019-01-27T13:24:52.381Z,6.23
2019-01-27T13:27:26.753Z,6.21
2019-01-27T13:30:01.145Z,6.13
2019-01-27T13:32:36.009Z,6.12
2019-01-27T13:35:10.630Z,6.14
2019-01-27T13:37:44.796Z,6.11
2019-01-27T13:40:20.807Z,6.09
2019-01-27T13:42:54.009Z,6.05
2019-01-27T13:45:28.761Z,6.02
2019-01-27T13:48:02.097Z,6.01
2019-01-27T13:50:37.532Z,5.97
2019-01-27T13:53:12.583Z,5.95
2019-01-27T13:55:46.566Z,5.93
2019-01-27T13:58:20.378Z,5.92
2019-01-27T14:00:53.993Z,5.88
2019-01-27T14:03:29.216Z,5.85
2019-01-27T14:06:06.538Z,5.81
2019-01-27T14:08:44.219Z,5.80
2019-01-27T14:11:18.957Z,5.77
2019-01-27T14:13:56.655Z,5.79
2019-01-27T14:16:30.276Z,5.72
2019-01-27T14:19:04.598Z,5.70
2019-01-27T14:21:39.186Z,5.68
2019-01-27T14:24:15.882Z,5.67
2019-01-27T14:26:49.675Z,5.64
2019-01-27T14:29:23.910Z,5.63
2019-01-27T14:31:58.375Z,5.62
2019-01-27T14:34:31.629Z,5.59
2019-01-27T14:37:05.736Z,5.59
2019-01-27T14:39:43.010Z,5.56
2019-01-27T14:42:18.312Z,5.56
2019-01-27T14:44:51.029Z,5.56
2019-01-27T14:47:25.565Z,5.52
2019-01-27T14:50:00.789Z,5.51
2019-01-27T14:52:34.651Z,5.46
2019-01-27T14:55:10.876Z,5.48
2019-01-27T14:57:43.471Z,5.46
2019-01-27T15:00:27.367Z,5.44
2019-01-27T15:03:01.345Z,5.39
2019-01-27T15:05:36.240Z,5.38
2019-01-27T15:08:11.862Z,5.38
2019-01-27T15:10:49.730Z,5.33
2019-01-27T15:13:24.334Z,5.29
2019-01-27T15:15:58.093Z,5.24
2019-01-27T15:18:31.307Z,5.25
2019-01-27T15:21:18.815Z,5.24
2019-01-27T15:23:52.602Z,5.19
2019-01-27T15:26:26.548Z,5.15
2019-01-27T15:29:00.445Z,5.11
2019-01-27T15:31:34.875Z,5.01
2019-01-27T15:34:09.287Z,5.01
2019-01-27T15:36:45.211Z,5.03
2019-01-27T15:39:19.231Z,5.02
2019-01-27T15:41:52.138Z,5.02
2019-01-27T15:44:26.445Z,5.02
2019-01-27T15:47:01.263Z,5.04
2019-01-27T15:49:35.925Z,5.02
2019-01-27T15:52:10.493Z,4.98
2019-01-27T15:54:44.525Z,4.99
2019-01-27T15:57:19.178Z,4.96
2019-01-27T15:59:52.665Z,4.95
2019-01-27T16:02:27.464Z,4.93
2019-01-27T16:05:02.822Z,4.91
2019-01-27T16:07:36.295Z,4.93
2019-01-27T16:10:12.007Z,4.90
2019-01-27T16:12:50.444Z,4.89
2019-01-27T16:15:28.258Z,4.88
2019-01-27T16:18:02.648Z,4.91
2019-01-27T16:20:37.653Z,4.90
2019-01-27T16:23:39.485Z,4.91
2019-01-27T16:26:13.119Z,4.89
2019-01-27T16:28:53.818Z,4.91
2019-01-27T16:31:44.074Z,4.89
2019-01-27T16:34:31.640Z,4.90
2019-01-27T16:37:06.144Z,4.94
2019-01-27T16:39:39.568Z,4.92
2019-01-27T16:42:16.732Z,4.91
2019-01-27T16:44:54.678Z,4.93
2019-01-27T16:47:28.123Z,4.90
2019-01-27T16:50:02.712Z,4.89
2019-01-27T16:52:37.556Z,4.84
2019-01-27T16:55:14.264Z,4.84
2019-01-27T16:57:48.291Z,4.81
2019-01-27T17:00:25.487Z,4.80
2019-01-27T17:02:58.338Z,4.81
2019-01-27T17:05:31.632Z,4.80
2019-01-27T17:08:05.466Z,4.73
2019-01-27T17:10:39.486Z,4.72
2019-01-27T17:13:13.048Z,4.71
2019-01-27T17:15:46.893Z,4.69
2019-01-27T17:18:20.344Z,4.67
2019-01-27T17:20:55.663Z,4.67
2019-01-27T17:23:30.079Z,4.68
2019-01-27T17:26:04.007Z,4.66
2019-01-27T17:28:38.231Z,4.66
2019-01-27T17:31:12.032Z,4.61
2019-01-27T17:33:47.992Z,4.61
2019-01-27T17:36:22.473Z,4.61
2019-01-27T17:38:56.343Z,4.58
2019-01-27T17:41:29.584Z,4.57
2019-01-27T17:44:03.769Z,4.55
2019-01-27T17:46:36.755Z,4.54
2019-01-27T17:49:16.807Z,4.49
2019-01-27T17:51:55.439Z,4.48
2019-01-27T17:54:29.926Z,4.47
2019-01-27T17:57:24.217Z,4.46
2019-01-27T18:00:19.101Z,4.44
2019-01-27T18:03:03.306Z,4.37
2019-01-27T18:05:48.066Z,4.40
2019-01-27T18:08:35.386Z,4.39
2019-01-27T18:11:31.128Z,4.34
2019-01-27T18:14:10.372Z,4.31
2019-01-27T18:16:43.967Z,4.27
2019-01-27T18:19:17.570Z,4.31
2019-01-27T18:21:53.069Z,4.29
2019-01-27T18:24:27.998Z,4.24
2019-01-27T18:27:03.628Z,4.22
2019-01-27T18:29:36.869Z,4.22
2019-01-27T18:32:18.429Z,4.23
2019-01-27T18:34:53.885Z,4.25
2019-01-27T18:37:27.733Z,4.25
2019-01-27T18:40:01.493Z,4.22
2019-01-27T18:42:37.204Z,4.21
2019-01-27T18:45:14.703Z,4.22
2019-01-27T18:47:48.749Z,4.17
2019-01-27T18:50:26.860Z,4.16
2019-01-27T18:53:11.314Z,4.14
2019-01-27T18:56:04.724Z,4.13
2019-01-27T18:59:12.794Z,4.12
2019-01-27T19:01:54.443Z,4.08
2019-01-27T19:04:48.642Z,4.06
2019-01-27T19:07:39.534Z,4.05
2019-01-27T19:10:38.066Z,4.06
2019-01-27T19:13:35.413Z,4.07
2019-01-27T19:16:30.584Z,4.10
2019-01-27T19:19:31.304Z,4.13
2019-01-27T19:22:43.931Z,4.10
2019-01-27T19:25:35.475Z,4.04
2019-01-27T19:28:21.723Z,4.05
2019-01-27T19:31:03.739Z,4.06
2019-01-27T19:33:56.212Z,4.06
2019-01-27T19:36:54.991Z,4.05
2019-01-27T19:39:38.509Z,4.05
2019-01-27T19:42:42.270Z,4.03
2019-01-27T19:45:34.131Z,4.04
2019-01-27T19:48:25.540Z,4.05
2019-01-27T19:51:28.298Z,4.04
2019-01-27T19:54:35.256Z,4.02
2019-01-27T19:57:33.988Z,4.01
2019-01-27T20:00:33.350Z,4.01
2019-01-27T20:03:41.884Z,4.00
2019-01-27T20:06:26.520Z,3.96
2019-01-27T20:09:33.231Z,3.96
2019-01-27T20:12:30.808Z,3.94
2019-01-27T20:15:23.291Z,3.93
2019-01-27T20:18:14.710Z,3.95
2019-01-27T20:21:14.570Z,3.88
2019-01-27T20:24:07.219Z,3.86
2019-01-27T20:27:03.771Z,3.88
2019-01-27T20:29:56.132Z,3.84
2019-01-27T20:32:46.735Z,3.83
2019-01-27T20:35:46.241Z,3.85
2019-01-27T20:38:27.221Z,3.84
2019-01-27T20:41:08.950Z,3.83
2019-01-27T20:43:50.073Z,3.83
2019-01-27T20:46:48.856Z,3.83
2019-01-27T20:49:52.784Z,3.83
2019-01-27T20:52:39.294Z,3.80
2019-01-27T20:55:37.571Z,3.79
2019-01-27T20:58:35.221Z,3.79
2019-01-27T21:01:34.564Z,3.78
2019-01-27T21:04:25.458Z,3.76
2019-01-27T21:07:22.730Z,3.76
2019-01-27T21:10:06.589Z,3.74
2019-01-27T21:13:07.871Z,3.75
2019-01-27T21:15:45.174Z,3.75
2019-01-27T21:18:33.032Z,3.75
2019-01-27T21:21:07.147Z,3.77
2019-01-27T21:23:41.953Z,3.78
2019-01-27T21:26:15.171Z,3.78
2019-01-27T21:28:48.581Z,3.81
2019-01-27T21:31:22.395Z,3.80
2019-01-27T21:33:56.039Z,3.80
2019-01-27T21:36:30.174Z,3.84
2019-01-27T21:39:04.059Z,3.81
2019-01-27T21:41:37.429Z,3.81
2019-01-27T21:44:11.336Z,3.78
2019-01-27T21:46:46.615Z,3.79
2019-01-27T21:49:20.917Z,3.78
2019-01-27T21:51:55.127Z,3.79
2019-01-27T21:54:29.289Z,3.77
2019-01-27T21:57:03.367Z,3.76
2019-01-27T21:59:38.906Z,3.74
2019-01-27T22:02:13.169Z,3.71
2019-01-27T22:04:47.782Z,3.73
2019-01-27T22:07:22.071Z,3.71
2019-01-27T22:09:56.609Z,3.67
2019-01-27T22:12:30.581Z,3.65
2019-01-27T22:15:05.941Z,3.64
2019-01-27T22:17:40.359Z,3.61
2019-01-27T22:20:16.428Z,3.56
2019-01-27T22:22:52.730Z,3.54
2019-01-27T22:25:25.963Z,3.54
2019-01-27T22:27:59.218Z,3.51
2019-01-27T22:30:33.526Z,3.48
2019-01-27T22:33:07.136Z,3.48
2019-01-27T22:35:40.649Z,3.43
2019-01-27T22:38:14.927Z,3.43
2019-01-27T22:40:49.776Z,3.42
2019-01-27T22:43:23.952Z,3.40
2019-01-27T22:45:57.813Z,3.39
2019-01-27T22:48:31.737Z,3.36
2019-01-27T22:51:05.508Z,3.36
2019-01-27T22:53:39.822Z,3.34
2019-01-27T22:56:14.241Z,3.31
2019-01-27T22:58:49.572Z,3.30
2019-01-27T23:01:23.390Z,3.31
2019-01-27T23:04:00.623Z,3.31
2019-01-27T23:06:34.765Z,3.29
2019-01-27T23:09:16.231Z,3.28
2019-01-27T23:11:50.283Z,3.27
2019-01-27T23:14:25.015Z,3.27
2019-01-27T23:16:59.797Z,3.26
2019-01-27T23:19:34.510Z,3.23
2019-01-27T23:22:08.584Z,3.26
2019-01-27T23:24:42.493Z,3.25
2019-01-27T23:27:15.966Z,3.24
2019-01-27T23:29:50.634Z,3.23
2019-01-27T23:32:25.027Z,3.20
2019-01-27T23:34:59.323Z,3.17
2019-01-27T23:37:35.223Z,3.17
2019-01-27T23:40:10.368Z,3.16
2019-01-27T23:42:44.499Z,3.13
2019-01-27T23:45:18.610Z,3.11
2019-01-27T23:47:52.471Z,3.10
2019-01-27T23:50:27.520Z,3.09
2019-01-27T23:53:02.817Z,3.09
2019-01-27T23:55:36.576Z,3.07
2019-01-27T23:58:11.112Z,3.03
